createdAt,value
2023-04-23T10:01:11.472Z,17.44
2023-04-23T10:03:44.165Z,17.41
2023-04-23T10:06:25.757Z,17.49
2023-04-23T10:08:59.487Z,17.61
2023-04-23T10:11:28.326Z,17.67
2023-04-23T10:13:56.761Z,17.72
2023-04-23T10:16:30.609Z,17.77
2023-04-23T10:19:05.997Z,17.78
2023-04-23T10:21:50.143Z,17.77
2023-04-23T10:24:25.059Z,17.75
2023-04-23T10:26:55.084Z,17.74
2023-04-23T10:29:30.432Z,17.74
2023-04-23T10:32:01.355Z,17.72
2023-04-23T10:34:31.390Z,17.72
2023-04-23T10:37:01.540Z,17.72
2023-04-23T10:39:34.040Z,17.73
2023-04-23T10:42:03.110Z,17.74
2023-04-23T10:44:56.636Z,17.73
2023-04-23T10:47:24.718Z,17.73
2023-04-23T10:49:53.449Z,17.72
2023-04-23T10:52:25.183Z,17.72
2023-04-23T10:54:58.077Z,17.67
2023-04-23T10:57:26.366Z,17.63
2023-04-23T10:59:56.128Z,17.62
2023-04-23T11:02:26.855Z,17.62
2023-04-23T11:04:58.091Z,17.62
2023-04-23T11:07:28.478Z,17.66
2023-04-23T11:09:57.688Z,17.67
2023-04-23T11:12:34.950Z,17.66
2023-04-23T11:15:12.478Z,17.65
2023-04-23T11:18:03.506Z,17.64
2023-04-23T11:20:31.920Z,17.63
2023-04-23T11:22:59.883Z,17.62
2023-04-23T11:25:29.920Z,17.61
2023-04-23T11:27:59.731Z,17.61
2023-04-23T11:30:29.426Z,17.61
2023-04-23T11:32:59.973Z,17.62
2023-04-23T11:35:30.779Z,17.61
2023-04-23T11:37:58.468Z,17.61
2023-04-23T11:40:30.673Z,17.61
2023-04-23T11:42:59.734Z,17.60
2023-04-23T11:45:29.883Z,17.60
2023-04-23T11:47:59.967Z,17.59
2023-04-23T11:50:33.067Z,17.57
2023-04-23T11:53:07.499Z,17.57
2023-04-23T11:55:35.130Z,17.53
2023-04-23T11:58:04.042Z,17.53
2023-04-23T12:00:31.794Z,17.51
2023-04-23T12:03:02.548Z,17.50
2023-04-23T12:05:33.675Z,17.48
2023-04-23T12:08:09.040Z,17.47
2023-04-23T12:10:43.494Z,17.46
2023-04-23T12:13:15.487Z,17.46
2023-04-23T12:15:47.790Z,17.47
2023-04-23T12:18:15.668Z,17.46
2023-04-23T12:20:45.025Z,17.45
2023-04-23T12:23:12.926Z,17.47
2023-04-23T12:25:41.609Z,17.47
2023-04-23T12:28:09.452Z,17.47
2023-04-23T12:30:44.699Z,17.47
2023-04-23T12:33:12.920Z,17.48
2023-04-23T12:35:41.901Z,17.47
2023-04-23T12:38:23.876Z,17.47
2023-04-23T12:40:52.155Z,17.45
2023-04-23T12:43:20.236Z,17.41
2023-04-23T12:45:48.177Z,17.42
2023-04-23T12:48:16.291Z,17.42
2023-04-23T12:50:44.749Z,17.41
2023-04-23T12:53:14.755Z,17.40
2023-04-23T12:55:45.722Z,17.40
2023-04-23T12:58:13.844Z,17.39
2023-04-23T13:00:41.961Z,17.38
2023-04-23T13:03:09.772Z,17.38
2023-04-23T13:05:38.253Z,17.38
2023-04-23T13:08:06.240Z,17.37
2023-04-23T13:10:35.280Z,17.38
2023-04-23T13:13:03.323Z,17.35
2023-04-23T13:15:31.787Z,17.34
2023-04-23T13:17:59.885Z,17.33
2023-04-23T13:20:28.628Z,17.34
2023-04-23T13:22:56.925Z,17.33
2023-04-23T13:25:25.586Z,17.32
2023-04-23T13:27:54.909Z,17.32
2023-04-23T13:30:23.322Z,17.30
2023-04-23T13:32:51.627Z,17.31
2023-04-23T13:35:20.273Z,17.32
2023-04-23T13:37:48.229Z,17.31
2023-04-23T13:40:16.245Z,17.30
2023-04-23T13:42:44.183Z,17.32
2023-04-23T13:45:14.868Z,17.30
2023-04-23T13:47:43.669Z,17.30
2023-04-23T13:50:12.456Z,17.27
2023-04-23T13:52:41.128Z,17.26
2023-04-23T13:55:10.686Z,17.25
2023-04-23T13:57:39.806Z,17.24
2023-04-23T14:00:10.323Z,17.23
2023-04-23T14:02:40.036Z,17.21
2023-04-23T14:05:08.999Z,17.21
2023-04-23T14:07:36.993Z,17.30
2023-04-23T14:10:05.293Z,17.41
2023-04-23T14:12:33.393Z,17.54
2023-04-23T14:15:01.206Z,17.69
2023-04-23T14:17:29.214Z,17.85
2023-04-23T14:19:58.682Z,17.96
2023-04-23T14:22:26.458Z,18.07
2023-04-23T14:24:58.237Z,18.16
2023-04-23T14:27:25.963Z,18.24
2023-04-23T14:29:59.988Z,18.34
2023-04-23T14:32:27.650Z,18.40
2023-04-23T14:34:55.350Z,18.48
2023-04-23T14:37:24.429Z,18.55
2023-04-23T14:39:52.071Z,18.62
2023-04-23T14:42:19.688Z,18.65
2023-04-23T14:44:47.561Z,18.65
2023-04-23T14:47:16.004Z,18.66
2023-04-23T14:49:44.907Z,18.66
2023-04-23T14:52:12.733Z,18.66
2023-04-23T14:54:41.779Z,18.66
2023-04-23T14:57:09.594Z,18.67
2023-04-23T14:59:37.435Z,18.66
2023-04-23T15:02:05.708Z,18.66
2023-04-23T15:04:33.632Z,18.66
2023-04-23T15:07:01.399Z,18.67
2023-04-23T15:09:29.146Z,18.67
2023-04-23T15:11:58.518Z,18.66
2023-04-23T15:14:31.523Z,18.66
2023-04-23T15:16:59.207Z,18.71
2023-04-23T15:19:26.879Z,18.76
2023-04-23T15:21:54.657Z,18.81
2023-04-23T15:24:22.417Z,18.87
2023-04-23T15:26:53.159Z,18.91
2023-04-23T15:29:24.368Z,18.98
2023-04-23T15:31:57.880Z,19.00
2023-04-23T15:34:25.748Z,19.02
2023-04-23T15:36:53.374Z,19.03
2023-04-23T15:39:21.403Z,19.06
2023-04-23T15:41:49.095Z,19.09
2023-04-23T15:44:18.241Z,19.09
2023-04-23T15:46:47.179Z,19.10
2023-04-23T15:49:14.956Z,19.11
2023-04-23T15:51:42.752Z,19.13
2023-04-23T15:54:10.738Z,19.05
2023-04-23T15:56:38.480Z,19.03
2023-04-23T15:59:06.462Z,19.07
2023-04-23T16:01:34.534Z,19.09
2023-04-23T16:06:34.294Z,19.10
2023-04-23T16:09:03.252Z,19.10
2023-04-23T16:11:31.142Z,19.10
2023-04-23T16:13:58.961Z,19.13
2023-04-23T16:16:26.875Z,19.16
2023-04-23T16:18:56.310Z,19.18
2023-04-23T16:21:27.940Z,19.19
2023-04-23T16:23:55.830Z,19.16
2023-04-23T16:26:23.593Z,19.15
2023-04-23T16:29:05.834Z,19.17
2023-04-23T16:31:39.428Z,19.18
2023-04-23T16:34:07.344Z,19.19
2023-04-23T16:36:36.747Z,19.18
2023-04-23T16:39:05.309Z,19.21
2023-04-23T16:41:33.617Z,19.21
2023-04-23T16:44:01.390Z,19.22
2023-04-23T16:46:30.961Z,19.24
2023-04-23T16:48:58.942Z,19.23
2023-04-23T16:51:28.392Z,19.25
2023-04-23T16:53:57.672Z,19.26
2023-04-23T16:56:25.953Z,19.26
2023-04-23T16:58:53.836Z,19.29
2023-04-23T17:01:21.590Z,19.29
2023-04-23T17:03:49.569Z,19.26
2023-04-23T17:06:25.730Z,19.29
2023-04-23T17:08:53.556Z,19.29
2023-04-23T17:11:22.972Z,19.31
2023-04-23T17:13:50.926Z,19.32
2023-04-23T17:16:18.651Z,19.32
2023-04-23T17:18:46.480Z,19.33
2023-04-23T17:21:14.260Z,19.34
2023-04-23T17:23:42.173Z,19.34
2023-04-23T17:26:09.891Z,19.35
2023-04-23T17:28:40.702Z,19.36
2023-04-23T17:31:08.571Z,19.37
2023-04-23T17:33:36.367Z,19.35
2023-04-23T17:36:04.227Z,19.35
2023-04-23T17:38:31.930Z,19.35
2023-04-23T17:41:00.295Z,19.35
2023-04-23T17:43:28.521Z,19.34
2023-04-23T17:45:57.581Z,19.34
2023-04-23T17:48:25.350Z,19.34
2023-04-23T17:50:54.535Z,19.35
2023-04-23T17:53:22.381Z,19.35
2023-04-23T17:55:50.166Z,19.38
2023-04-23T17:58:19.226Z,19.40
2023-04-23T18:00:46.992Z,19.42
2023-04-23T18:03:18.712Z,19.45
2023-04-23T18:05:46.432Z,19.44
2023-04-23T18:08:16.245Z,19.45
2023-04-23T18:10:45.330Z,19.47
2023-04-23T18:13:13.576Z,19.49
2023-04-23T18:15:42.087Z,19.46
2023-04-23T18:18:10.083Z,19.27
2023-04-23T18:20:40.149Z,19.24
2023-04-23T18:23:07.983Z,19.33
2023-04-23T18:25:36.000Z,19.36
2023-04-23T18:28:03.781Z,19.40
2023-04-23T18:30:31.903Z,19.42
2023-04-23T18:33:03.827Z,19.42
2023-04-23T18:35:31.564Z,19.44
2023-04-23T18:38:06.912Z,19.45
2023-04-23T18:40:34.754Z,19.45
2023-04-23T18:43:02.779Z,19.47
2023-04-23T18:45:30.455Z,19.46
2023-04-23T18:48:03.674Z,19.48
2023-04-23T18:50:37.920Z,19.47
2023-04-23T18:53:07.307Z,19.46
2023-04-23T18:55:35.006Z,19.46
2023-04-23T18:58:02.786Z,19.47
2023-04-23T19:00:30.716Z,19.47
2023-04-23T19:02:58.913Z,19.45
2023-04-23T19:05:26.835Z,19.39
2023-04-23T19:07:54.579Z,19.40
2023-04-23T19:10:23.764Z,19.41
2023-04-23T19:12:51.379Z,19.42
2023-04-23T19:15:19.327Z,19.42
2023-04-23T19:17:47.256Z,19.42
2023-04-23T19:20:15.697Z,19.42
2023-04-23T19:22:43.501Z,19.25
2023-04-23T19:25:11.398Z,19.17
2023-04-23T19:27:40.634Z,19.24
2023-04-23T19:30:10.337Z,19.29
2023-04-23T19:32:38.031Z,19.33
2023-04-23T19:35:06.762Z,19.34
2023-04-23T19:37:35.875Z,19.35
2023-04-23T19:40:04.910Z,19.36
2023-04-23T19:42:32.655Z,19.37
2023-04-23T19:45:01.559Z,19.38
2023-04-23T19:47:29.266Z,19.38
2023-04-23T19:49:56.919Z,19.38
2023-04-23T19:52:27.281Z,19.39
2023-04-23T19:54:54.855Z,19.39
2023-04-23T19:57:22.748Z,19.39
2023-04-23T19:59:50.284Z,19.41
2023-04-23T20:02:19.309Z,19.42
2023-04-23T20:04:47.154Z,19.42
2023-04-23T20:07:14.962Z,19.43
2023-04-23T20:09:42.754Z,19.42
2023-04-23T20:12:10.497Z,19.42
2023-04-23T20:14:38.105Z,19.43
2023-04-23T20:17:05.735Z,19.42
2023-04-23T20:19:34.775Z,19.42
2023-04-23T20:22:02.498Z,19.42
2023-04-23T20:24:30.517Z,19.42
2023-04-23T20:26:58.525Z,19.42
2023-04-23T20:29:27.474Z,19.44
2023-04-23T20:31:55.229Z,19.43
2023-04-23T20:34:23.045Z,19.43
2023-04-23T20:36:52.077Z,19.42
2023-04-23T20:39:23.934Z,19.33
2023-04-23T20:41:52.449Z,19.25
2023-04-23T20:44:22.560Z,19.26
2023-04-23T20:46:51.416Z,19.30
2023-04-23T20:49:19.403Z,19.33
2023-04-23T20:51:47.258Z,19.36
2023-04-23T20:54:16.478Z,19.36
2023-04-23T20:56:44.292Z,19.37
2023-04-23T20:59:12.276Z,19.37
2023-04-23T21:01:39.931Z,19.36
2023-04-23T21:04:07.799Z,19.38
2023-04-23T21:06:35.923Z,19.38
2023-04-23T21:09:04.545Z,19.40
2023-04-23T21:11:33.664Z,19.40
2023-04-23T21:14:01.520Z,19.41
2023-04-23T21:16:29.343Z,19.40
2023-04-23T21:18:56.983Z,19.39
2023-04-23T21:21:27.865Z,19.39
2023-04-23T21:23:55.774Z,19.36
2023-04-23T21:26:23.692Z,19.36
2023-04-23T21:28:52.577Z,19.39
2023-04-23T21:31:38.648Z,19.41
2023-04-23T21:34:06.428Z,19.42
2023-04-23T21:36:33.986Z,19.43
2023-04-23T21:39:01.885Z,19.43
2023-04-23T21:41:29.418Z,19.51
2023-04-23T21:43:58.386Z,19.67
2023-04-23T21:46:26.140Z,19.78
2023-04-23T21:48:54.046Z,19.78
2023-04-23T21:51:22.544Z,19.74
2023-04-23T21:53:50.422Z,19.69
2023-04-23T21:56:18.823Z,19.62
2023-04-23T21:58:46.555Z,19.53
2023-04-23T22:01:16.454Z,19.46
2023-04-23T22:03:46.665Z,19.39
2023-04-23T22:06:15.581Z,19.31
2023-04-23T22:08:44.573Z,19.24
2023-04-23T22:11:12.532Z,19.19
2023-04-23T22:13:40.456Z,19.13
2023-04-23T22:16:20.398Z,19.07
2023-04-23T22:18:56.594Z,19.01
2023-04-23T22:21:24.269Z,18.94
2023-04-23T22:23:51.941Z,18.90
2023-04-23T22:26:19.790Z,18.87
2023-04-23T22:28:47.611Z,18.81
2023-04-23T22:31:15.889Z,18.77
2023-04-23T22:33:43.599Z,18.73
2023-04-23T22:36:12.536Z,18.70
2023-04-23T22:38:40.132Z,18.66
2023-04-23T22:41:07.757Z,18.63
2023-04-23T22:43:35.345Z,18.59
2023-04-23T22:46:03.289Z,18.56
2023-04-23T22:48:31.175Z,18.53
2023-04-23T22:50:59.141Z,18.50
2023-04-23T22:53:28.103Z,18.48
2023-04-23T22:55:55.771Z,18.44
2023-04-23T22:58:23.412Z,18.40
2023-04-23T23:00:51.480Z,18.37
2023-04-23T23:03:19.286Z,18.37
2023-04-23T23:05:46.982Z,18.34
2023-04-23T23:08:14.679Z,18.30
2023-04-23T23:10:43.691Z,18.28
2023-04-23T23:13:11.406Z,18.25
2023-04-23T23:15:39.031Z,18.23
2023-04-23T23:18:07.786Z,18.22
2023-04-23T23:20:35.649Z,18.19
2023-04-23T23:23:03.416Z,18.16
2023-04-23T23:25:31.061Z,18.14
2023-04-23T23:27:59.975Z,18.13
2023-04-23T23:30:27.595Z,18.12
2023-04-23T23:32:55.376Z,18.10
2023-04-23T23:35:23.015Z,18.08
2023-04-23T23:37:50.866Z,18.07
2023-04-23T23:40:18.703Z,18.05
2023-04-23T23:42:46.271Z,18.03
2023-04-23T23:45:15.363Z,18.02
2023-04-23T23:47:43.237Z,18.00
2023-04-23T23:50:11.899Z,17.99
2023-04-23T23:52:39.572Z,17.96
2023-04-23T23:55:08.145Z,17.95
2023-04-23T23:57:36.211Z,17.93
